logo
Search for airport 
image banner adimage banner adimage banner ad
image banner ad

OIBA - Abumusa Island / Abumusa / National

Located in Abumusa, Iran, Islamic Republic of

ICAO - OIBA, IATA - AEU

Data provided by Airmate  

General information

Coordinates: N25°52'34" E55°1'54"
Elevation is 13 feet MSL.
 
View others Airports in Hormozgan Province

Operational data

Special qualification required
Current time UTC:
Current local time:
Weather
METAR: OIBA 130600Z 26010KT 4500 HZ FEW025 BKN080 27/21 Q1006
View NOTAMs / SUP AIP / TFR affecting this airport [VIEW]
Communications frequencies: [VIEW]

Runways:

RWY identifierQFULength (ft)Width (ft)SurfaceLDA (ft)
0883°9793148ASP
26263°9793148ASP

Airport contact information

Address: Abumusa Iran, Islamic Republic of

Satellite view of OIBA